createdAt,value
2019-03-13T00:00:00.435Z,4.17
2019-03-13T00:01:42.908Z,4.45
2019-03-13T00:03:17.509Z,4.72
2019-03-13T00:04:51.898Z,5.03
2019-03-13T00:06:26.575Z,4.72
2019-03-13T00:08:01.069Z,4.67
2019-03-13T00:09:35.514Z,4.33
2019-03-13T00:11:09.870Z,4.60
2019-03-13T00:12:44.257Z,4.85
2019-03-13T00:14:18.704Z,4.42
2019-03-13T00:15:53.133Z,4.70
2019-03-13T00:17:27.827Z,4.33
2019-03-13T00:19:02.281Z,4.75
2019-03-13T00:20:36.728Z,5.00
2019-03-13T00:22:12.089Z,4.47
2019-03-13T00:23:46.741Z,4.55
2019-03-13T00:25:21.467Z,4.05
2019-03-13T00:26:55.837Z,3.85
2019-03-13T00:28:30.255Z,3.20
2019-03-13T00:30:05.713Z,4.12
2019-03-13T00:31:40.076Z,3.70
2019-03-13T00:33:14.695Z,2.92
2019-03-13T00:34:49.457Z,2.30
2019-03-13T00:36:24.172Z,2.50
2019-03-13T00:37:58.958Z,2.52
2019-03-13T00:39:33.750Z,2.65
2019-03-13T00:41:08.636Z,2.70
2019-03-13T00:42:43.422Z,2.90
2019-03-13T00:44:18.327Z,2.83
2019-03-13T00:45:53.393Z,2.85
2019-03-13T00:47:28.329Z,2.90
2019-03-13T00:49:03.126Z,3.08
2019-03-13T00:50:37.945Z,2.92
2019-03-13T00:52:13.308Z,2.70
2019-03-13T00:53:48.613Z,3.02
2019-03-13T00:55:23.753Z,3.15
2019-03-13T00:56:58.602Z,2.52
2019-03-13T00:58:33.387Z,2.85
2019-03-13T01:00:08.749Z,2.90
2019-03-13T01:02:01.920Z,2.62
2019-03-13T01:03:52.725Z,3.15
2019-03-13T01:05:37.287Z,2.58
2019-03-13T01:07:12.294Z,3.47
2019-03-13T01:08:46.742Z,2.95
2019-03-13T01:10:21.428Z,3.40
2019-03-13T01:11:55.898Z,2.92
2019-03-13T01:13:30.619Z,3.02
2019-03-13T01:15:06.728Z,2.87
2019-03-13T01:16:42.472Z,2.80
2019-03-13T01:18:17.360Z,2.95
2019-03-13T01:19:52.649Z,3.12
2019-03-13T01:21:27.429Z,3.20
2019-03-13T01:23:02.215Z,3.33
2019-03-13T01:24:37.113Z,3.17
2019-03-13T01:26:11.974Z,2.95
2019-03-13T01:27:46.824Z,3.00
2019-03-13T01:29:21.872Z,2.98
2019-03-13T01:31:11.140Z,3.72
2019-03-13T01:32:54.562Z,3.37
2019-03-13T01:34:32.415Z,3.42
2019-03-13T01:36:07.499Z,3.85
2019-03-13T01:37:42.332Z,3.77
2019-03-13T01:39:17.122Z,3.62
2019-03-13T01:40:51.898Z,3.70
2019-03-13T01:42:26.682Z,3.42
2019-03-13T01:44:01.917Z,4.22
2019-03-13T01:45:36.720Z,3.77
2019-03-13T01:47:11.511Z,3.45
2019-03-13T01:48:46.292Z,3.75
2019-03-13T01:50:21.092Z,3.83
2019-03-13T01:51:56.139Z,3.33
2019-03-13T01:53:30.924Z,3.67
2019-03-13T01:55:06.618Z,2.95
2019-03-13T01:56:41.406Z,3.67
2019-03-13T01:58:16.210Z,4.08
2019-03-13T01:59:51.121Z,3.17
2019-03-13T02:01:25.988Z,3.65
2019-03-13T02:03:01.011Z,4.53
2019-03-13T02:04:36.095Z,3.67
2019-03-13T02:06:12.002Z,3.62
2019-03-13T02:07:46.821Z,4.42
2019-03-13T02:09:21.614Z,3.90
2019-03-13T02:10:56.816Z,3.40
2019-03-13T02:12:31.775Z,3.12
2019-03-13T02:14:06.753Z,3.47
2019-03-13T02:15:41.537Z,3.58
2019-03-13T02:17:16.861Z,3.50
2019-03-13T02:18:51.663Z,3.40
2019-03-13T02:20:26.551Z,3.30
2019-03-13T02:22:01.358Z,3.67
2019-03-13T02:23:36.417Z,3.67
2019-03-13T02:25:11.447Z,3.00
2019-03-13T02:26:46.515Z,2.65
2019-03-13T02:28:22.022Z,2.15
2019-03-13T02:29:57.313Z,2.00
2019-03-13T02:31:32.126Z,1.72
2019-03-13T02:33:06.914Z,1.32
2019-03-13T02:34:41.741Z,1.25
2019-03-13T02:36:16.793Z,1.20
2019-03-13T02:37:51.217Z,1.15
2019-03-13T02:39:25.651Z,1.22
2019-03-13T02:41:00.199Z,1.40
2019-03-13T02:42:34.687Z,1.40
2019-03-13T02:44:09.103Z,1.50
2019-03-13T02:45:43.446Z,1.32
2019-03-13T02:47:19.292Z,1.20
2019-03-13T02:48:54.387Z,1.40
2019-03-13T02:50:29.190Z,1.30
2019-03-13T02:52:03.636Z,1.30
2019-03-13T02:53:38.170Z,1.30
2019-03-13T02:55:13.363Z,1.37
2019-03-13T02:56:48.197Z,1.20
2019-03-13T02:58:23.252Z,1.40
2019-03-13T02:59:58.092Z,1.30
2019-03-13T03:01:38.133Z,1.45
2019-03-13T03:03:22.542Z,1.20
2019-03-13T03:04:57.305Z,1.22
2019-03-13T03:06:32.117Z,1.40
2019-03-13T03:08:07.217Z,1.60
2019-03-13T03:09:42.362Z,1.42
2019-03-13T03:11:17.217Z,1.70
2019-03-13T03:12:52.097Z,1.40
2019-03-13T03:14:26.910Z,1.35
2019-03-13T03:16:01.796Z,1.60
2019-03-13T03:17:36.590Z,1.60
2019-03-13T03:19:11.381Z,1.50
2019-03-13T03:20:46.248Z,1.57
2019-03-13T03:22:21.054Z,1.67
2019-03-13T03:23:55.869Z,1.75
2019-03-13T03:25:30.989Z,1.90
2019-03-13T03:27:06.081Z,1.82
2019-03-13T03:28:40.880Z,2.00
2019-03-13T03:30:18.318Z,2.30
2019-03-13T03:31:53.218Z,1.70
2019-03-13T03:33:27.694Z,2.10
2019-03-13T03:35:02.552Z,1.87
2019-03-13T03:36:37.619Z,2.35
2019-03-13T03:38:12.484Z,1.95
2019-03-13T03:39:47.544Z,2.65
2019-03-13T03:41:22.356Z,2.37
2019-03-13T03:42:57.156Z,2.30
2019-03-13T03:44:32.304Z,2.42
2019-03-13T03:46:07.080Z,2.10
2019-03-13T03:47:41.884Z,2.55
2019-03-13T03:49:16.709Z,2.10
2019-03-13T03:50:51.743Z,2.50
2019-03-13T03:52:26.782Z,2.65
2019-03-13T03:54:01.579Z,2.45
2019-03-13T03:55:36.146Z,2.75
2019-03-13T03:57:10.959Z,2.55
2019-03-13T03:58:46.096Z,2.85
2019-03-13T04:00:20.624Z,3.00
2019-03-13T04:01:55.941Z,2.87
2019-03-13T04:03:30.386Z,2.87
2019-03-13T04:05:05.152Z,2.45
2019-03-13T04:06:39.953Z,2.85
2019-03-13T04:08:14.417Z,2.55
2019-03-13T04:09:48.777Z,2.72
2019-03-13T04:11:23.163Z,2.42
2019-03-13T04:12:57.596Z,3.22
2019-03-13T04:14:32.570Z,2.27
2019-03-13T04:16:07.681Z,2.30
2019-03-13T04:17:42.478Z,2.40
2019-03-13T04:19:16.925Z,2.50
2019-03-13T04:20:51.305Z,2.47
2019-03-13T04:22:25.694Z,2.40
2019-03-13T04:24:00.676Z,2.00
2019-03-13T04:25:36.310Z,2.20
2019-03-13T04:27:11.172Z,2.17
2019-03-13T04:28:45.564Z,2.05
2019-03-13T04:30:20.057Z,1.92
2019-03-13T04:31:54.411Z,1.70
2019-03-13T04:33:29.069Z,2.00
2019-03-13T04:35:03.617Z,1.52
2019-03-13T04:36:38.243Z,1.98
2019-03-13T04:38:12.605Z,1.90
2019-03-13T04:39:47.227Z,1.70
2019-03-13T04:41:21.589Z,1.80
2019-03-13T04:42:56.389Z,1.90
2019-03-13T04:44:30.895Z,1.70
2019-03-13T04:46:05.918Z,2.05
2019-03-13T04:47:40.557Z,1.80
2019-03-13T04:49:14.985Z,1.65
2019-03-13T04:50:49.609Z,2.45
2019-03-13T04:52:24.117Z,2.17
2019-03-13T04:53:58.952Z,1.80
2019-03-13T04:55:33.558Z,1.72
2019-03-13T04:57:07.962Z,1.80
2019-03-13T04:58:42.610Z,1.65
2019-03-13T05:00:17.166Z,1.40
2019-03-13T05:01:51.577Z,1.45
2019-03-13T05:03:26.510Z,1.30
2019-03-13T05:05:01.082Z,1.47
2019-03-13T05:06:35.489Z,1.10
2019-03-13T05:08:10.913Z,1.57
2019-03-13T05:09:45.786Z,1.62
2019-03-13T05:11:20.155Z,1.40
2019-03-13T05:12:54.596Z,1.35
2019-03-13T05:14:32.568Z,1.10
2019-03-13T05:16:05.821Z,1.20
2019-03-13T05:17:40.196Z,1.37
2019-03-13T05:19:14.815Z,1.00
2019-03-13T05:20:49.417Z,1.20
2019-03-13T05:22:23.785Z,1.15
2019-03-13T05:23:58.243Z,1.00
2019-03-13T05:25:32.842Z,1.00
2019-03-13T05:27:07.591Z,0.95
2019-03-13T05:28:42.680Z,1.30
2019-03-13T05:30:17.936Z,1.02
2019-03-13T05:31:53.722Z,1.17
2019-03-13T05:33:28.982Z,1.40
2019-03-13T05:35:03.802Z,1.20
2019-03-13T05:36:38.772Z,1.15
2019-03-13T05:38:13.566Z,1.30
2019-03-13T05:39:48.355Z,1.10
2019-03-13T05:41:23.133Z,1.52
2019-03-13T05:42:58.061Z,1.20
2019-03-13T05:44:32.852Z,1.30
2019-03-13T05:46:09.763Z,1.20
2019-03-13T05:47:44.962Z,1.20
2019-03-13T05:49:19.798Z,1.42
2019-03-13T05:50:54.616Z,1.30
2019-03-13T05:52:29.414Z,1.20
2019-03-13T05:54:04.192Z,1.45
2019-03-13T05:55:38.982Z,1.22
2019-03-13T05:57:14.076Z,1.40
2019-03-13T05:58:49.373Z,1.75
2019-03-13T06:00:25.871Z,1.47
2019-03-13T06:02:00.660Z,1.67
2019-03-13T06:03:35.738Z,1.55
2019-03-13T06:05:11.187Z,1.75
2019-03-13T06:06:45.993Z,1.67
2019-03-13T06:08:21.135Z,1.62
2019-03-13T06:09:55.987Z,1.70
2019-03-13T06:11:30.885Z,1.67
2019-03-13T06:13:06.036Z,1.82
2019-03-13T06:14:40.843Z,2.00
2019-03-13T06:16:15.645Z,2.02
2019-03-13T06:17:50.463Z,2.20
2019-03-13T06:19:25.749Z,1.72
2019-03-13T06:21:00.601Z,1.95
2019-03-13T06:22:35.487Z,1.77
2019-03-13T06:24:10.258Z,1.80
2019-03-13T06:25:45.078Z,2.10
2019-03-13T06:27:19.864Z,1.90
2019-03-13T06:28:54.684Z,1.98
2019-03-13T06:30:29.932Z,1.90
2019-03-13T06:32:04.722Z,1.87
2019-03-13T06:33:39.772Z,1.85
2019-03-13T06:35:15.456Z,1.60
2019-03-13T06:36:50.242Z,1.60
2019-03-13T06:38:25.279Z,1.80
2019-03-13T06:40:00.385Z,1.70
2019-03-13T06:41:35.239Z,1.80
2019-03-13T06:43:10.027Z,1.80
2019-03-13T06:44:44.832Z,1.70
2019-03-13T06:46:19.672Z,1.70
2019-03-13T06:47:54.462Z,1.62
2019-03-13T06:49:28.902Z,2.10
2019-03-13T06:51:03.342Z,2.30
2019-03-13T06:52:38.334Z,1.92
2019-03-13T06:54:12.868Z,2.20
2019-03-13T06:55:47.710Z,1.85
2019-03-13T06:57:22.539Z,2.10
2019-03-13T06:59:16.419Z,2.47
2019-03-13T07:01:10.224Z,2.27
2019-03-13T07:02:57.082Z,2.42
2019-03-13T07:04:50.277Z,2.70
2019-03-13T07:06:36.064Z,2.10
2019-03-13T07:08:42.752Z,1.90
2019-03-13T07:10:27.258Z,1.60
2019-03-13T07:12:21.790Z,1.90
2019-03-13T07:14:13.104Z,1.40
2019-03-13T07:16:19.344Z,1.50
2019-03-13T07:18:12.076Z,1.45
2019-03-13T07:20:04.839Z,1.20
2019-03-13T07:22:13.835Z,1.50
2019-03-13T07:23:53.822Z,1.10
2019-03-13T07:25:34.645Z,1.17
2019-03-13T07:27:28.134Z,1.00
2019-03-13T07:29:20.535Z,0.95
2019-03-13T07:31:10.245Z,1.00
2019-03-13T07:33:00.748Z,1.22
2019-03-13T07:34:57.585Z,1.17
2019-03-13T07:36:48.163Z,1.00
2019-03-13T07:38:36.015Z,1.10
2019-03-13T07:40:34.172Z,1.05
2019-03-13T07:42:27.940Z,0.90
2019-03-13T07:44:21.221Z,1.22
2019-03-13T07:46:21.031Z,0.90
2019-03-13T07:48:04.101Z,0.90
2019-03-13T07:49:58.740Z,1.07
2019-03-13T07:51:46.306Z,0.90
2019-03-13T07:53:41.401Z,1.17
2019-03-13T07:55:26.655Z,0.82
2019-03-13T07:57:09.598Z,0.93
2019-03-13T07:59:00.507Z,0.80
2019-03-13T08:00:41.818Z,0.90
2019-03-13T08:02:32.990Z,1.22
2019-03-13T08:04:17.642Z,0.85
2019-03-13T08:06:14.566Z,1.10
2019-03-13T08:07:58.556Z,0.95
2019-03-13T08:09:52.821Z,0.90
2019-03-13T08:11:35.205Z,0.82
2019-03-13T08:13:23.346Z,0.80
2019-03-13T08:15:10.402Z,0.80
2019-03-13T08:16:53.226Z,1.03
2019-03-13T08:18:50.427Z,0.95
2019-03-13T08:20:43.125Z,0.88
2019-03-13T08:22:39.986Z,0.80
2019-03-13T08:24:36.862Z,1.00
2019-03-13T08:26:20.357Z,0.60
2019-03-13T08:28:29.418Z,0.70
2019-03-13T08:30:35.947Z,0.97
2019-03-13T08:32:36.035Z,0.70
2019-03-13T08:34:35.930Z,0.80
2019-03-13T08:36:28.757Z,0.77
2019-03-13T08:38:20.031Z,0.60
2019-03-13T08:40:22.729Z,0.70
2019-03-13T08:42:10.499Z,0.63
2019-03-13T08:44:00.729Z,0.80
2019-03-13T08:45:53.427Z,0.90
2019-03-13T08:47:53.262Z,0.70
2019-03-13T08:50:06.139Z,0.80
2019-03-13T08:51:47.674Z,0.83
2019-03-13T08:53:34.777Z,0.87
2019-03-13T08:55:28.821Z,0.80
2019-03-13T08:57:17.603Z,0.80
2019-03-13T08:59:00.618Z,0.77
2019-03-13T09:00:54.702Z,0.40
2019-03-13T09:02:51.706Z,0.70
2019-03-13T09:04:45.507Z,0.70
2019-03-13T09:06:34.937Z,0.80
2019-03-13T09:08:27.398Z,0.40
2019-03-13T09:10:13.971Z,0.80
2019-03-13T09:12:00.030Z,0.80
2019-03-13T09:13:46.290Z,0.70
2019-03-13T09:15:38.317Z,0.80
2019-03-13T09:17:41.541Z,0.60
2019-03-13T09:19:38.686Z,0.70
2019-03-13T09:21:22.680Z,0.70
2019-03-13T09:23:12.561Z,0.60
2019-03-13T09:25:11.790Z,0.60
2019-03-13T09:26:52.913Z,1.00
2019-03-13T09:28:38.715Z,0.87
2019-03-13T09:30:32.892Z,0.50
2019-03-13T09:32:32.273Z,0.60
2019-03-13T09:34:26.084Z,0.60
2019-03-13T09:36:14.849Z,0.60
2019-03-13T09:38:14.725Z,0.70
2019-03-13T09:40:27.150Z,1.10
2019-03-13T09:42:24.003Z,0.70
2019-03-13T09:44:25.186Z,0.60
2019-03-13T09:46:09.553Z,0.50
2019-03-13T09:47:51.120Z,0.70
2019-03-13T09:49:43.633Z,0.70
2019-03-13T09:51:35.406Z,0.60
2019-03-13T09:53:16.855Z,0.60
2019-03-13T09:55:07.346Z,0.93
2019-03-13T09:56:49.231Z,0.60
2019-03-13T09:58:49.468Z,0.60
2019-03-13T10:00:58.696Z,0.70
2019-03-13T10:02:44.256Z,0.80
2019-03-13T10:04:41.316Z,0.83
2019-03-13T10:06:44.623Z,0.70
2019-03-13T10:08:37.623Z,0.60
2019-03-13T10:10:43.768Z,0.70
2019-03-13T10:12:49.829Z,0.60
2019-03-13T10:14:30.109Z,0.80
2019-03-13T10:16:27.006Z,0.77
2019-03-13T10:18:08.635Z,0.60
2019-03-13T10:20:02.419Z,0.70
2019-03-13T10:21:56.612Z,0.80
2019-03-13T10:23:49.175Z,0.60
2019-03-13T10:25:35.203Z,0.70
2019-03-13T10:27:18.627Z,0.90
2019-03-13T10:29:11.314Z,0.83
2019-03-13T10:31:08.148Z,0.70
2019-03-13T10:32:48.384Z,0.90
2019-03-13T10:34:45.030Z,1.00
2019-03-13T10:36:37.224Z,0.77
2019-03-13T10:38:33.382Z,1.63
2019-03-13T10:40:21.272Z,0.83
2019-03-13T10:42:27.338Z,1.20
2019-03-13T10:44:30.630Z,1.10
2019-03-13T10:46:33.522Z,0.70
2019-03-13T10:48:33.515Z,1.10
2019-03-13T10:50:23.524Z,0.77
2019-03-13T10:52:16.220Z,1.20
2019-03-13T10:54:08.668Z,1.03
2019-03-13T10:56:00.000Z,0.70
2019-03-13T10:58:01.636Z,0.80
2019-03-13T10:59:44.542Z,0.93
2019-03-13T11:01:31.060Z,0.80
2019-03-13T11:03:32.081Z,0.83
2019-03-13T11:05:25.678Z,0.80
2019-03-13T11:07:22.423Z,0.63
2019-03-13T11:09:05.708Z,0.60
2019-03-13T11:10:56.095Z,0.97
2019-03-13T11:12:48.674Z,0.80
2019-03-13T11:14:44.649Z,0.80
2019-03-13T11:16:30.689Z,0.70
2019-03-13T11:18:21.637Z,0.70
2019-03-13T11:20:07.235Z,0.80
2019-03-13T11:22:01.017Z,0.70
2019-03-13T11:23:53.784Z,0.80
2019-03-13T11:25:53.730Z,1.00
2019-03-13T11:27:44.327Z,0.87
2019-03-13T11:29:33.615Z,1.10
2019-03-13T11:31:31.109Z,1.00
2019-03-13T11:33:24.452Z,0.90
2019-03-13T11:35:11.830Z,0.83
2019-03-13T11:37:11.431Z,0.70
2019-03-13T11:39:04.764Z,0.80
2019-03-13T11:41:04.792Z,1.00
2019-03-13T11:43:06.385Z,0.90
2019-03-13T11:44:48.804Z,0.90
2019-03-13T11:46:42.024Z,0.90
2019-03-13T11:48:35.074Z,0.90
2019-03-13T11:50:21.353Z,0.80
2019-03-13T11:52:14.424Z,0.90
2019-03-13T11:53:58.279Z,0.90
2019-03-13T11:55:50.640Z,0.90
2019-03-13T11:57:44.447Z,1.00
2019-03-13T11:59:29.193Z,1.20
2019-03-13T12:01:17.440Z,0.70
2019-03-13T12:02:58.849Z,0.90
2019-03-13T12:04:51.513Z,0.80
2019-03-13T12:06:51.740Z,1.30
2019-03-13T12:08:40.956Z,1.10
2019-03-13T12:10:25.942Z,0.90
2019-03-13T12:12:12.606Z,0.80
2019-03-13T12:14:09.782Z,0.87
2019-03-13T12:15:52.037Z,0.90
2019-03-13T12:17:34.337Z,0.90
2019-03-13T12:19:25.061Z,0.70
2019-03-13T12:21:12.698Z,0.80
2019-03-13T12:23:06.476Z,0.77
2019-03-13T12:24:55.237Z,0.97
2019-03-13T12:26:39.486Z,0.70
2019-03-13T12:28:22.115Z,0.73
2019-03-13T12:30:14.908Z,0.80
2019-03-13T12:32:14.688Z,0.80
2019-03-13T12:33:57.040Z,0.80
2019-03-13T12:35:53.973Z,1.07
2019-03-13T12:37:39.688Z,0.70
2019-03-13T12:39:20.284Z,0.87
2019-03-13T12:41:03.987Z,0.93
2019-03-13T12:43:00.517Z,1.10
2019-03-13T12:44:50.410Z,0.90
2019-03-13T12:46:41.917Z,0.90
2019-03-13T12:48:38.858Z,0.85
2019-03-13T12:50:34.308Z,1.00
2019-03-13T12:52:25.466Z,1.00
2019-03-13T12:54:08.795Z,0.80
2019-03-13T12:56:01.482Z,0.80
2019-03-13T12:57:53.549Z,1.00
2019-03-13T13:00:06.848Z,0.70
2019-03-13T13:01:53.449Z,0.67
2019-03-13T13:03:36.491Z,0.70
2019-03-13T13:05:22.875Z,1.00
2019-03-13T13:07:06.753Z,1.60
2019-03-13T13:09:07.488Z,0.90
2019-03-13T13:10:59.753Z,1.00
2019-03-13T13:12:54.712Z,1.23
2019-03-13T13:14:46.826Z,1.20
2019-03-13T13:16:46.514Z,0.90
2019-03-13T13:18:39.640Z,1.00
2019-03-13T13:20:15.058Z,1.30
2019-03-13T13:21:50.172Z,1.00
2019-03-13T13:23:25.465Z,0.90
2019-03-13T13:25:00.421Z,0.90
2019-03-13T13:26:35.399Z,0.50
2019-03-13T13:28:09.802Z,0.90
2019-03-13T13:29:44.808Z,0.90
2019-03-13T13:31:19.947Z,0.87
2019-03-13T13:32:54.755Z,0.90
2019-03-13T13:34:29.534Z,0.90
2019-03-13T13:36:05.459Z,1.00
2019-03-13T13:37:39.878Z,0.70
2019-03-13T13:39:14.240Z,0.80
2019-03-13T13:40:49.007Z,0.90
2019-03-13T13:42:23.385Z,0.80
2019-03-13T13:43:57.791Z,0.80
2019-03-13T13:45:44.845Z,0.90
2019-03-13T13:47:19.949Z,0.63
2019-03-13T13:48:54.413Z,0.60
2019-03-13T13:50:29.496Z,0.60
2019-03-13T13:52:04.499Z,0.73
2019-03-13T13:53:39.536Z,0.83
2019-03-13T13:55:14.328Z,0.73
2019-03-13T13:56:49.189Z,0.90
2019-03-13T13:58:24.016Z,0.97
2019-03-13T13:59:59.520Z,0.83
2019-03-13T14:01:34.302Z,0.97
2019-03-13T14:03:09.631Z,0.90
2019-03-13T14:04:44.773Z,0.60
2019-03-13T14:06:20.104Z,0.80
2019-03-13T14:07:54.899Z,0.77
2019-03-13T14:09:29.992Z,0.70
2019-03-13T14:11:04.879Z,0.70
2019-03-13T14:12:39.732Z,0.73
2019-03-13T14:14:14.529Z,0.87
2019-03-13T14:15:49.677Z,1.07
2019-03-13T14:17:24.716Z,0.90
2019-03-13T14:18:59.520Z,0.90
2019-03-13T14:20:34.313Z,0.90
2019-03-13T14:22:08.967Z,0.90
2019-03-13T14:23:43.398Z,0.83
2019-03-13T14:25:19.003Z,0.97
2019-03-13T14:26:54.134Z,0.70
2019-03-13T14:28:29.015Z,0.83
2019-03-13T14:30:04.594Z,0.67
2019-03-13T14:31:39.638Z,0.90
2019-03-13T14:33:14.430Z,0.53
2019-03-13T14:34:49.641Z,0.80
2019-03-13T14:36:24.742Z,1.03
2019-03-13T14:37:59.511Z,0.80
2019-03-13T14:39:34.811Z,0.63
2019-03-13T14:41:09.702Z,0.80
2019-03-13T14:42:44.484Z,0.67
2019-03-13T14:44:19.528Z,0.80
2019-03-13T14:45:54.768Z,0.83
2019-03-13T14:47:29.555Z,0.80
2019-03-13T14:49:04.709Z,0.70
2019-03-13T14:50:39.554Z,0.70
2019-03-13T14:52:14.359Z,0.80
2019-03-13T14:53:49.156Z,0.90
2019-03-13T14:55:23.946Z,0.97
2019-03-13T14:56:59.055Z,0.70
2019-03-13T14:59:48.251Z,0.80
2019-03-13T15:01:23.306Z,0.70
2019-03-13T15:02:58.089Z,0.90
2019-03-13T15:04:33.139Z,0.70
2019-03-13T15:06:08.045Z,0.70
2019-03-13T15:07:43.180Z,0.67
2019-03-13T15:09:17.946Z,0.77
2019-03-13T15:10:52.991Z,0.80
2019-03-13T15:12:28.234Z,0.77
2019-03-13T15:14:03.023Z,0.90
2019-03-13T15:15:38.280Z,1.13
2019-03-13T15:17:13.318Z,1.00
2019-03-13T15:18:48.185Z,0.90
2019-03-13T15:20:23.030Z,1.20
2019-03-13T15:21:58.054Z,0.80
2019-03-13T15:23:32.949Z,0.80
2019-03-13T15:25:09.343Z,0.98
2019-03-13T15:26:44.381Z,0.53
2019-03-13T15:28:19.167Z,0.75
2019-03-13T15:29:53.987Z,0.80
2019-03-13T15:31:28.757Z,0.80
2019-03-13T15:33:03.783Z,0.98
2019-03-13T15:34:41.376Z,0.72
2019-03-13T15:36:15.399Z,0.70
2019-03-13T15:37:50.526Z,1.03
2019-03-13T15:39:25.309Z,0.70
2019-03-13T15:41:00.351Z,0.70
2019-03-13T15:42:35.762Z,0.85
2019-03-13T15:44:10.543Z,1.07
2019-03-13T15:45:45.320Z,0.70
2019-03-13T15:47:20.598Z,0.88
2019-03-13T15:48:55.646Z,0.75
2019-03-13T15:50:30.852Z,0.90
2019-03-13T15:52:05.913Z,2.20
2019-03-13T15:53:40.699Z,5.12
2019-03-13T15:55:15.933Z,7.10
2019-03-13T15:56:50.685Z,0.85
2019-03-13T15:58:25.477Z,1.80
2019-03-13T16:00:00.379Z,2.58
2019-03-13T16:01:35.155Z,1.30
2019-03-13T16:03:09.935Z,1.05
2019-03-13T16:04:44.950Z,0.80
2019-03-13T16:06:19.730Z,0.65
2019-03-13T16:07:54.558Z,0.65
2019-03-13T16:09:29.826Z,0.70
2019-03-13T16:11:04.966Z,0.60
2019-03-13T16:12:40.188Z,0.80
2019-03-13T16:14:15.082Z,0.70
2019-03-13T16:15:49.867Z,0.60
2019-03-13T16:17:24.638Z,0.70
2019-03-13T16:18:59.408Z,0.80
2019-03-13T16:20:34.365Z,0.70
2019-03-13T16:22:09.715Z,0.60
2019-03-13T16:23:45.132Z,0.95
2019-03-13T16:25:20.019Z,0.90
2019-03-13T16:26:55.152Z,0.85
2019-03-13T16:28:30.427Z,0.78
2019-03-13T16:30:08.094Z,0.80
2019-03-13T16:31:42.872Z,0.80
2019-03-13T16:33:17.764Z,0.68
2019-03-13T16:34:52.798Z,0.90
2019-03-13T16:36:27.574Z,0.93
2019-03-13T16:38:02.682Z,0.78
2019-03-13T16:39:37.782Z,1.37
2019-03-13T16:41:12.652Z,0.80
2019-03-13T16:42:47.836Z,0.95
2019-03-13T16:44:22.871Z,1.07
2019-03-13T16:45:57.691Z,1.00
2019-03-13T16:47:32.540Z,0.90
2019-03-13T16:49:07.322Z,0.93
2019-03-13T16:50:42.420Z,1.27
2019-03-13T16:52:17.373Z,1.05
2019-03-13T16:53:52.175Z,0.95
2019-03-13T16:55:27.310Z,1.00
2019-03-13T16:57:02.110Z,0.90
2019-03-13T16:58:36.934Z,0.70
2019-03-13T17:00:17.729Z,0.80
2019-03-13T17:01:52.841Z,0.80
2019-03-13T17:03:27.956Z,0.80
2019-03-13T17:05:03.032Z,0.80
2019-03-13T17:06:37.810Z,0.90
2019-03-13T17:08:12.598Z,0.90
2019-03-13T17:09:47.383Z,1.02
2019-03-13T17:11:22.460Z,1.00
2019-03-13T17:12:57.401Z,0.90
2019-03-13T17:14:32.399Z,1.15
2019-03-13T17:16:07.203Z,1.00
2019-03-13T17:17:42.388Z,0.98
2019-03-13T17:19:17.162Z,1.05
2019-03-13T17:20:51.945Z,0.85
2019-03-13T17:22:26.976Z,1.10
2019-03-13T17:24:02.014Z,1.10
2019-03-13T17:25:36.892Z,0.93
2019-03-13T17:27:11.765Z,1.00
2019-03-13T17:28:46.546Z,0.90
2019-03-13T17:30:24.199Z,1.22
2019-03-13T17:31:59.299Z,1.05
2019-03-13T17:33:34.321Z,1.07
2019-03-13T17:35:09.424Z,1.20
2019-03-13T17:36:44.663Z,1.00
2019-03-13T17:38:19.554Z,1.00
2019-03-13T17:39:54.358Z,0.90
2019-03-13T17:41:29.213Z,0.80
2019-03-13T17:43:04.469Z,1.22
2019-03-13T17:44:39.543Z,1.00
2019-03-13T17:46:14.677Z,0.80
2019-03-13T17:47:49.890Z,0.90
2019-03-13T17:49:25.046Z,0.93
2019-03-13T17:51:00.131Z,0.82
2019-03-13T17:52:34.931Z,1.30
2019-03-13T17:54:09.704Z,1.02
2019-03-13T17:55:44.750Z,1.20
2019-03-13T17:57:19.869Z,0.90
2019-03-13T17:58:54.757Z,1.47
2019-03-13T18:00:34.853Z,0.80
2019-03-13T18:02:09.973Z,1.15
2019-03-13T18:03:44.747Z,1.05
2019-03-13T18:05:19.921Z,1.10
2019-03-13T18:06:54.693Z,1.10
2019-03-13T18:08:29.475Z,1.42
2019-03-13T18:10:04.702Z,1.10
2019-03-13T18:11:39.786Z,0.90
2019-03-13T18:13:14.558Z,1.00
2019-03-13T18:14:49.679Z,1.07
2019-03-13T18:16:24.784Z,0.82
2019-03-13T18:17:59.997Z,0.80
2019-03-13T18:19:35.112Z,0.80
2019-03-13T18:21:09.883Z,0.90
2019-03-13T18:22:45.052Z,1.25
2019-03-13T18:24:20.266Z,0.90
2019-03-13T18:25:55.082Z,0.90
2019-03-13T18:27:30.178Z,1.00
2019-03-13T18:29:04.979Z,1.00
2019-03-13T18:30:39.813Z,1.20
2019-03-13T18:32:14.591Z,1.00
2019-03-13T18:33:49.381Z,0.80
2019-03-13T18:35:24.334Z,1.00
2019-03-13T18:36:59.193Z,1.10
2019-03-13T18:38:34.024Z,1.10
2019-03-13T18:40:09.746Z,1.20
2019-03-13T18:41:44.642Z,0.98
2019-03-13T18:43:19.412Z,1.20
2019-03-13T18:44:54.511Z,0.85
2019-03-13T18:46:29.897Z,0.70
2019-03-13T18:48:04.921Z,0.90
2019-03-13T18:49:39.695Z,0.98
2019-03-13T18:51:14.473Z,1.30
2019-03-13T18:52:49.841Z,0.95
2019-03-13T18:54:24.714Z,0.70
2019-03-13T18:55:59.706Z,1.00
2019-03-13T18:57:34.497Z,1.00
2019-03-13T18:59:09.609Z,1.15
2019-03-13T19:00:44.834Z,0.90
2019-03-13T19:02:19.609Z,0.95
2019-03-13T19:03:54.395Z,0.90
2019-03-13T19:05:30.066Z,1.07
2019-03-13T19:07:04.865Z,1.00
2019-03-13T19:08:39.632Z,1.10
2019-03-13T19:10:15.345Z,0.95
2019-03-13T19:11:50.115Z,1.00
2019-03-13T19:13:24.982Z,0.88
2019-03-13T19:15:00.025Z,1.00
2019-03-13T19:16:35.268Z,0.68
2019-03-13T19:18:10.197Z,1.10
2019-03-13T19:19:45.292Z,0.90
2019-03-13T19:21:20.298Z,1.40
2019-03-13T19:22:55.565Z,1.32
2019-03-13T19:24:31.639Z,1.20
2019-03-13T19:26:06.966Z,0.70
2019-03-13T19:27:41.818Z,1.00
2019-03-13T19:29:16.593Z,1.20
2019-03-13T19:30:51.599Z,0.90
2019-03-13T19:32:26.933Z,0.85
2019-03-13T19:34:01.707Z,1.07
2019-03-13T19:35:36.477Z,1.00
2019-03-13T19:37:11.481Z,1.20
2019-03-13T19:38:46.277Z,1.02
2019-03-13T19:40:21.267Z,0.80
2019-03-13T19:41:56.713Z,0.90
2019-03-13T19:43:31.499Z,1.10
2019-03-13T19:45:10.213Z,0.93
2019-03-13T19:46:44.339Z,1.10
2019-03-13T19:48:19.152Z,1.20
2019-03-13T19:49:53.938Z,1.40
2019-03-13T19:51:28.719Z,1.07
2019-03-13T19:53:03.545Z,0.90
2019-03-13T19:54:38.565Z,0.80
2019-03-13T19:56:13.342Z,0.90
2019-03-13T19:57:48.116Z,1.05
2019-03-13T19:59:23.152Z,1.00
2019-03-13T20:00:57.956Z,1.30
2019-03-13T20:02:32.729Z,1.02
2019-03-13T20:04:07.653Z,1.00
2019-03-13T20:05:45.780Z,1.10
2019-03-13T20:07:19.945Z,0.90
2019-03-13T20:08:54.715Z,1.15
2019-03-13T20:10:29.680Z,1.02
2019-03-13T20:12:04.723Z,0.88
2019-03-13T20:13:39.755Z,1.40
2019-03-13T20:15:17.637Z,1.10
2019-03-13T20:16:52.394Z,0.90
2019-03-13T20:18:27.170Z,1.05
2019-03-13T20:20:02.375Z,1.12
2019-03-13T20:21:37.165Z,1.10
2019-03-13T20:23:12.292Z,0.90
2019-03-13T20:24:47.058Z,1.10
2019-03-13T20:26:22.737Z,1.00
2019-03-13T20:27:57.491Z,1.07
2019-03-13T20:29:32.327Z,0.93
2019-03-13T20:31:07.279Z,1.00
2019-03-13T20:32:42.177Z,1.20
2019-03-13T20:34:17.026Z,1.00
2019-03-13T20:35:51.878Z,0.90
2019-03-13T20:37:26.654Z,0.88
2019-03-13T20:39:01.599Z,0.93
2019-03-13T20:40:36.538Z,0.90
2019-03-13T20:42:11.297Z,0.70
2019-03-13T20:43:46.323Z,0.80
2019-03-13T20:45:23.102Z,0.95
2019-03-13T20:46:57.939Z,0.70
2019-03-13T20:48:32.727Z,1.00
2019-03-13T20:50:07.835Z,0.95
2019-03-13T20:51:42.862Z,0.70
2019-03-13T20:53:17.632Z,0.93
2019-03-13T20:54:52.405Z,0.90
2019-03-13T20:56:27.201Z,0.75
2019-03-13T20:58:01.972Z,0.80
2019-03-13T20:59:36.736Z,1.05
2019-03-13T21:01:11.506Z,0.90
2019-03-13T21:02:46.407Z,0.90
2019-03-13T21:04:21.414Z,0.80
2019-03-13T21:05:56.189Z,0.72
2019-03-13T21:07:31.216Z,0.98
2019-03-13T21:09:07.375Z,0.88
2019-03-13T21:10:42.303Z,0.78
2019-03-13T21:12:17.079Z,0.90
2019-03-13T21:13:52.073Z,0.80
2019-03-13T21:15:27.120Z,1.15
2019-03-13T21:17:01.885Z,1.35
2019-03-13T21:18:37.138Z,0.93
2019-03-13T21:20:13.711Z,1.00
2019-03-13T21:21:48.795Z,0.90
2019-03-13T21:23:23.648Z,0.98
2019-03-13T21:24:58.412Z,0.90
2019-03-13T21:26:33.193Z,1.02
2019-03-13T21:28:08.367Z,0.90
2019-03-13T21:29:43.144Z,0.80
2019-03-13T21:31:18.155Z,1.10
2019-03-13T21:32:53.314Z,0.80
2019-03-13T21:34:28.663Z,1.10
2019-03-13T21:36:03.452Z,0.80
2019-03-13T21:37:38.210Z,0.90
2019-03-13T21:39:13.314Z,0.90
2019-03-13T21:40:48.118Z,1.15
2019-03-13T21:42:22.893Z,1.05
2019-03-13T21:43:57.906Z,0.93
2019-03-13T21:45:41.027Z,1.00
2019-03-13T21:47:09.929Z,0.72
2019-03-13T21:48:44.701Z,0.88
2019-03-13T21:50:20.488Z,0.93
2019-03-13T21:51:55.265Z,1.15
2019-03-13T21:53:30.107Z,1.00
2019-03-13T21:55:05.590Z,0.90
2019-03-13T21:56:40.407Z,1.00
2019-03-13T21:58:15.183Z,0.95
2019-03-13T21:59:50.138Z,1.30
2019-03-13T22:01:25.241Z,0.90
2019-03-13T22:03:00.270Z,1.12
2019-03-13T22:04:35.309Z,1.15